Algona, IA

11:25 PM CDT on October 19, 2017 (GMT -0500)
Algona Municipal

Weather History for KAXA - November, 2011

Change the Weather History Date:

Wednesday, November 30, 2011

  Actual Average Record
Temperature  
Mean Temperature 33 °F -  
Max Temperature 51 °F 36 °F 51 °F (2011)
Min Temperature 15 °F 23 °F 6 °F (2014)
Degree Days  
Heating Degree Days 32    
Moisture  
Dew Point 12 °F    
Average Humidity 47    
Maximum Humidity 73    
Minimum Humidity 24    
Precipitation  
Precipitation 0.00 in - - ()
Sea Level Pressure  
Sea Level Pressure 29.97 in    
Wind  
Wind Speed 11 mph (SSW)    
Max Wind Speed 26 mph    
Max Gust Speed 29 mph    
Visibility 10 miles    
Events      
Averages and records for this station are not official NWS values.
T = Trace of Precipitation, MM = Missing Value Source: NWS Daily Summary

Daily Weather History Graph

Daily Weather History Graph

Search for Another Location

Airport or City:

Trip Planner

Search our weather history database for the weather conditions in past years. The results will help you decide how hot, cold, wet, or windy it might be!

Date:

Astronomy

Nov. 30, 2011 Rise Set
Actual Time 7:27 AM CST 4:43 PM CST
Civil Twilight 6:55 AM CST 5:15 PM CST
Nautical Twilight 6:20 AM CST 5:50 PM CST
Astronomical Twilight 5:46 AM CST 6:24 PM CST
Moon 11:41 AM CST (11/30) 10:47 PM CST (11/30)
Length of Visible Light 10h 19m
Length of Day
9h 16m
Waxing Crescent, 34% of the Moon is Illuminated
Nov 30
Waxing Crescent
Dec 2
First Quarter
Dec 10
Full
Dec 17
Last Quarter
Dec 24
New

Hourly Weather History & Observations

Time (CST) Temp. Windchill Dew Point Humidity Pressure Visibility Wind Dir Wind Speed Gust Speed Precip Events Conditions
12:15 AM 19.4 °F 11.5 °F 6.8 °F 58% 30.13 in 10.0 mi SSW 5.8 mph - N/A   Clear
12:35 AM 19.4 °F 11.5 °F 6.8 °F 58% 30.12 in 10.0 mi SSW 5.8 mph - N/A   Clear
12:55 AM 17.6 °F 9.3 °F 6.8 °F 63% 30.11 in 10.0 mi SSW 5.8 mph - N/A   Clear
1:15 AM 17.6 °F 6.4 °F 6.8 °F 63% 30.09 in 10.0 mi SSW 9.2 mph - N/A   Clear
1:35 AM 17.6 °F 6.4 °F 6.8 °F 63% 30.08 in 10.0 mi SSW 9.2 mph - N/A   Clear
1:55 AM 17.6 °F 6.4 °F 6.8 °F 63% 30.08 in 10.0 mi SSW 9.2 mph - N/A   Clear
2:15 AM 17.6 °F 7.3 °F 6.8 °F 63% 30.07 in 10.0 mi South 8.1 mph - N/A   Clear
2:35 AM 15.8 °F 5.1 °F 6.8 °F 68% 30.07 in 10.0 mi South 8.1 mph - N/A   Clear
2:55 AM 17.6 °F 5.0 °F 6.8 °F 63% 30.07 in 10.0 mi SSW 11.5 mph - N/A   Clear
3:15 AM 17.6 °F 5.7 °F 6.8 °F 63% 30.06 in 10.0 mi SSW 10.4 mph - N/A   Clear
3:35 AM 17.6 °F 5.0 °F 6.8 °F 63% 30.05 in 10.0 mi SSW 11.5 mph - N/A   Clear
3:55 AM 19.4 °F 7.2 °F 6.8 °F 58% 30.04 in 10.0 mi SSW 11.5 mph - N/A   Clear
4:15 AM 19.4 °F 7.2 °F 6.8 °F 58% 30.03 in 10.0 mi SSW 11.5 mph - N/A   Clear
4:35 AM 19.4 °F 7.9 °F 6.8 °F 58% 30.02 in 10.0 mi South 10.4 mph - N/A   Clear
4:55 AM 17.6 °F 6.4 °F 6.8 °F 63% 30.02 in 10.0 mi South 9.2 mph - N/A   Clear
5:15 AM 19.4 °F 8.6 °F 6.8 °F 58% 30.02 in 10.0 mi SSW 9.2 mph - N/A   Clear
5:35 AM 17.6 °F 6.4 °F 6.8 °F 63% 30.02 in 10.0 mi SSW 9.2 mph - N/A   Clear
5:55 AM 17.6 °F 6.4 °F 6.8 °F 63% 30.01 in 10.0 mi South 9.2 mph - N/A   Clear
6:15 AM 17.6 °F 7.3 °F 6.8 °F 63% 30.01 in 10.0 mi South 8.1 mph - N/A   Clear
6:35 AM 15.8 °F 5.1 °F 8.6 °F 73% 30.01 in 10.0 mi South 8.1 mph - N/A   Clear
6:55 AM 17.6 °F 7.3 °F 8.6 °F 68% 30.00 in 10.0 mi South 8.1 mph - N/A   Clear
7:15 AM 21.2 °F 8.9 °F 8.6 °F 58% 29.99 in 10.0 mi South 12.7 mph - N/A   Clear
7:35 AM 23.0 °F 10.1 °F 10.4 °F 59% 29.99 in 10.0 mi SSW 15.0 mph - N/A   Clear
7:55 AM 24.8 °F 12.4 °F 10.4 °F 54% 29.98 in 10.0 mi South 15.0 mph - N/A   Clear
8:15 AM 24.8 °F 12.4 °F 10.4 °F 54% 29.98 in 10.0 mi South 15.0 mph - N/A   Clear
8:35 AM 24.8 °F 12.9 °F 12.2 °F 59% 29.98 in 10.0 mi South 13.8 mph - N/A   Unknown
8:55 AM 28.4 °F 18.5 °F 12.2 °F 51% 29.98 in 10.0 mi South 11.5 mph - N/A   Unknown
9:15 AM 30.2 °F 21.3 °F 15.8 °F 55% 29.97 in 10.0 mi South 10.4 mph - N/A   Unknown
9:35 AM 33.8 °F 23.5 °F 14.0 °F 44% 29.96 in 10.0 mi SSW 16.1 mph - N/A   Unknown
9:55 AM 35.6 °F 25.5 °F 14.0 °F 41% 29.96 in 10.0 mi SSW 17.3 mph 24.2 mph N/A   Clear
10:15 AM 37.4 °F 27.5 °F 14.0 °F 38% 29.96 in 10.0 mi SSW 18.4 mph 23.0 mph N/A   Clear
10:35 AM 39.2 °F 29.3 °F 14.0 °F 36% 29.96 in 10.0 mi SSW 20.7 mph 26.5 mph N/A   Scattered Clouds
10:55 AM 41.0 °F 31.1 °F 12.2 °F 31% 29.95 in 10.0 mi SSW 23.0 mph - N/A   Clear
11:15 AM 42.8 °F 33.8 °F 14.0 °F 31% 29.94 in 10.0 mi SSW 21.9 mph 25.3 mph N/A   Clear
11:35 AM 44.6 °F 35.9 °F 14.0 °F 29% 29.92 in 10.0 mi SSW 23.0 mph - N/A   Clear
11:55 AM 44.6 °F 35.9 °F 14.0 °F 29% 29.92 in 10.0 mi SSW 23.0 mph - N/A   Scattered Clouds
12:35 PM 48.2 °F - 15.8 °F 27% 29.91 in 10.0 mi SSW 26.5 mph - N/A   Scattered Clouds
12:55 PM 46.4 °F 38.7 °F 15.8 °F 29% 29.88 in 10.0 mi South 20.7 mph - N/A   Clear
1:15 PM 48.2 °F - 15.8 °F 27% 29.88 in 10.0 mi SSW 23.0 mph 26.5 mph N/A   Clear
1:35 PM 48.2 °F - 17.6 °F 30% 29.88 in 10.0 mi SSW 20.7 mph 28.8 mph N/A   Clear
1:55 PM 51.8 °F - 17.6 °F 26% 29.86 in 10.0 mi SSW 21.9 mph 25.3 mph N/A   Clear
2:15 PM 51.8 °F - 15.8 °F 24% 29.86 in 10.0 mi South 23.0 mph 27.6 mph N/A   Clear
2:35 PM 48.2 °F - 15.8 °F 27% 29.86 in 10.0 mi SSW 19.6 mph 24.2 mph N/A   Clear
2:55 PM 48.2 °F - 15.8 °F 27% 29.85 in 10.0 mi South 21.9 mph - N/A   Clear
3:15 PM 48.2 °F - 15.8 °F 27% 29.86 in 10.0 mi South 19.6 mph 25.3 mph N/A   Clear
3:35 PM 48.2 °F - 15.8 °F 27% 29.87 in 10.0 mi South 19.6 mph - N/A   Clear
3:55 PM 46.4 °F 39.8 °F 15.8 °F 29% 29.88 in 10.0 mi SSW 16.1 mph - N/A   Clear
4:15 PM 46.4 °F 40.1 °F 15.8 °F 29% 29.89 in 10.0 mi SSW 15.0 mph - N/A   Clear
4:35 PM 46.4 °F 40.7 °F 15.8 °F 29% 29.89 in 10.0 mi SSW 12.7 mph 18.4 mph N/A   Clear
4:55 PM 44.6 °F 38.1 °F 17.6 °F 34% 29.88 in 10.0 mi South 13.8 mph - N/A   Clear
5:15 PM 42.8 °F 36.2 °F 17.6 °F 36% 29.89 in 10.0 mi South 12.7 mph - N/A   Clear
5:35 PM 42.8 °F 37.0 °F 17.6 °F 36% 29.90 in 10.0 mi South 10.4 mph - N/A   Clear
5:55 PM 39.2 °F 33.0 °F 17.6 °F 42% 29.91 in 10.0 mi South 9.2 mph - N/A   Clear
6:15 PM 39.2 °F 33.0 °F 17.6 °F 42% 29.91 in 10.0 mi South 9.2 mph - N/A   Clear
6:35 PM 39.2 °F 33.0 °F 17.6 °F 42% 29.92 in 10.0 mi South 9.2 mph - N/A   Clear
6:55 PM 39.2 °F 35.0 °F 19.4 °F 45% 29.93 in 10.0 mi South 5.8 mph - N/A   Clear
7:15 PM 39.2 °F 33.6 °F 17.6 °F 42% 29.94 in 10.0 mi South 8.1 mph - N/A   Clear
7:35 PM 39.2 °F 33.6 °F 17.6 °F 42% 29.94 in 10.0 mi South 8.1 mph - N/A   Clear
8:15 PM 35.6 °F 30.7 °F 17.6 °F 48% 29.97 in 10.0 mi South 5.8 mph - N/A   Clear
8:35 PM 35.6 °F 30.7 °F 17.6 °F 48% 29.97 in 10.0 mi South 5.8 mph - N/A   Clear
8:55 PM 35.6 °F 30.7 °F 17.6 °F 48% 29.98 in 10.0 mi South 5.8 mph - N/A   Clear
9:15 PM 33.8 °F 27.0 °F 17.6 °F 52% 29.98 in 10.0 mi South 8.1 mph - N/A   Clear
9:35 PM 33.8 °F 27.0 °F 17.6 °F 52% 29.99 in 10.0 mi South 8.1 mph - N/A   Clear
9:55 PM 37.4 °F 30.8 °F 17.6 °F 45% 29.99 in 10.0 mi South 9.2 mph - N/A   Clear
10:15 PM 35.6 °F 28.6 °F 17.6 °F 48% 29.99 in 10.0 mi SSE 9.2 mph - N/A   Clear
10:35 PM 35.6 °F 29.9 °F 17.6 °F 48% 30.01 in 10.0 mi SSE 6.9 mph - N/A   Clear
11:15 PM 35.6 °F 29.2 °F 17.6 °F 48% 30.01 in 10.0 mi SSE 8.1 mph - N/A   Clear
11:35 PM 35.6 °F 29.2 °F 17.6 °F 48% 30.02 in 10.0 mi South 8.1 mph - N/A   Clear
11:55 PM 35.6 °F 30.7 °F 17.6 °F 48% 30.03 in 10.0 mi South 5.8 mph - N/A   Clear